sensor_id;sensor_type;location;lat;lon;timestamp;pressure;altitude;pressure_sealevel;temperature;humidity
4858;BME280;58975;51.978;8.472;2023-09-12T00:02:25;100021.22;;;20.06;100.00
4858;BME280;58975;51.978;8.472;2023-09-12T00:07:21;100006.25;;;20.03;100.00
4858;BME280;58975;51.978;8.472;2023-09-12T00:12:22;100012.22;;;19.99;100.00
4858;BME280;58975;51.978;8.472;2023-09-12T00:17:19;100011.56;;;19.97;100.00
4858;BME280;58975;51.978;8.472;2023-09-12T00:22:15;100008.03;;;19.96;100.00
4858;BME280;58975;51.978;8.472;2023-09-12T00:27:12;100001.63;;;20.04;100.00
4858;BME280;58975;51.978;8.472;2023-09-12T00:32:08;99993.53;;;20.04;100.00
4858;BME280;58975;51.978;8.472;2023-09-12T00:37:05;99991.88;;;20.03;100.00
4858;BME280;58975;51.978;8.472;2023-09-12T00:42:02;99993.34;;;20.05;100.00
4858;BME280;58975;51.978;8.472;2023-09-12T00:47:00;100002.09;;;20.07;100.00
4858;BME280;58975;51.978;8.472;2023-09-12T00:51:58;100020.66;;;20.10;100.00
4858;BME280;58975;51.978;8.472;2023-09-12T00:56:54;100077.38;;;19.89;100.00
4858;BME280;58975;51.978;8.472;2023-09-12T01:01:51;100052.38;;;19.66;100.00
4858;BME280;58975;51.978;8.472;2023-09-12T01:06:48;100072.81;;;19.54;100.00
4858;BME280;58975;51.978;8.472;2023-09-12T01:11:44;100051.97;;;19.48;100.00
4858;BME280;58975;51.978;8.472;2023-09-12T01:16:41;100047.38;;;19.33;100.00
4858;BME280;58975;51.978;8.472;2023-09-12T01:22:08;100051.78;;;19.20;100.00
4858;BME280;58975;51.978;8.472;2023-09-12T01:32:18;100041.25;;;19.10;100.00
4858;BME280;58975;51.978;8.472;2023-09-12T01:37:15;100039.22;;;19.12;100.00
4858;BME280;58975;51.978;8.472;2023-09-12T01:42:15;100045.66;;;19.11;100.00
4858;BME280;58975;51.978;8.472;2023-09-12T01:47:13;100072.16;;;19.22;100.00
4858;BME280;58975;51.978;8.472;2023-09-12T01:52:11;100064.91;;;19.23;100.00
4858;BME280;58975;51.978;8.472;2023-09-12T01:57:08;100067.59;;;19.23;100.00
4858;BME280;58975;51.978;8.472;2023-09-12T02:02:05;100063.53;;;19.12;100.00
4858;BME280;58975;51.978;8.472;2023-09-12T02:07:03;100068.44;;;19.23;100.00
4858;BME280;58975;51.978;8.472;2023-09-12T02:11:59;100079.72;;;19.12;100.00
4858;BME280;58975;51.978;8.472;2023-09-12T02:16:56;100101.22;;;19.20;100.00
4858;BME280;58975;51.978;8.472;2023-09-12T02:21:53;100181.66;;;19.40;100.00
4858;BME280;58975;51.978;8.472;2023-09-12T02:26:49;100211.28;;;18.96;100.00
4858;BME280;58975;51.978;8.472;2023-09-12T02:31:46;100221.28;;;18.87;100.00
4858;BME280;58975;51.978;8.472;2023-09-12T02:36:42;100223.94;;;18.95;100.00
4858;BME280;58975;51.978;8.472;2023-09-12T02:41:39;100153.69;;;19.03;100.00
4858;BME280;58975;51.978;8.472;2023-09-12T02:46:36;100115.06;;;19.17;100.00
4858;BME280;58975;51.978;8.472;2023-09-12T02:51:33;100065.09;;;19.21;100.00
4858;BME280;58975;51.978;8.472;2023-09-12T02:56:29;100011.28;;;19.20;100.00
4858;BME280;58975;51.978;8.472;2023-09-12T03:01:27;99992.47;;;19.26;100.00
4858;BME280;58975;51.978;8.472;2023-09-12T03:06:24;99975.25;;;19.42;100.00
4858;BME280;58975;51.978;8.472;2023-09-12T03:11:21;99971.97;;;19.47;100.00
4858;BME280;58975;51.978;8.472;2023-09-12T03:16:17;100006.59;;;19.58;100.00
4858;BME280;58975;51.978;8.472;2023-09-12T03:21:14;100022.78;;;19.58;100.00
4858;BME280;58975;51.978;8.472;2023-09-12T03:26:10;100025.81;;;19.48;100.00
4858;BME280;58975;51.978;8.472;2023-09-12T03:31:12;100022.72;;;19.36;100.00
4858;BME280;58975;51.978;8.472;2023-09-12T03:36:09;100049.63;;;19.30;100.00
4858;BME280;58975;51.978;8.472;2023-09-12T03:41:06;100095.72;;;19.28;100.00
4858;BME280;58975;51.978;8.472;2023-09-12T03:46:03;100154.16;;;19.21;100.00
4858;BME280;58975;51.978;8.472;2023-09-12T03:51:03;100143.66;;;19.26;100.00
4858;BME280;58975;51.978;8.472;2023-09-12T03:56:00;100156.13;;;19.27;100.00
4858;BME280;58975;51.978;8.472;2023-09-12T04:00:56;100077.19;;;19.25;100.00
4858;BME280;58975;51.978;8.472;2023-09-12T04:05:53;100084.56;;;19.31;100.00
4858;BME280;58975;51.978;8.472;2023-09-12T04:10:50;100037.63;;;19.32;100.00
4858;BME280;58975;51.978;8.472;2023-09-12T04:15:46;100010.16;;;19.14;100.00
4858;BME280;58975;51.978;8.472;2023-09-12T04:20:43;100061.94;;;19.03;100.00
4858;BME280;58975;51.978;8.472;2023-09-12T04:25:42;100096.09;;;18.96;100.00
4858;BME280;58975;51.978;8.472;2023-09-12T04:30:42;100128.25;;;18.83;100.00
4858;BME280;58975;51.978;8.472;2023-09-12T04:35:42;100091.88;;;18.79;100.00
4858;BME280;58975;51.978;8.472;2023-09-12T04:40:38;100085.16;;;18.75;100.00
4858;BME280;58975;51.978;8.472;2023-09-12T04:45:36;100171.53;;;18.44;100.00
4858;BME280;58975;51.978;8.472;2023-09-12T04:50:33;100150.22;;;18.04;100.00
4858;BME280;58975;51.978;8.472;2023-09-12T04:55:29;100145.25;;;17.45;100.00
4858;BME280;58975;51.978;8.472;2023-09-12T05:00:26;100096.41;;;17.48;100.00
4858;BME280;58975;51.978;8.472;2023-09-12T05:05:22;100110.25;;;17.45;100.00
4858;BME280;58975;51.978;8.472;2023-09-12T05:10:19;100076.88;;;17.24;100.00
4858;BME280;58975;51.978;8.472;2023-09-12T05:15:15;100113.69;;;17.23;100.00
4858;BME280;58975;51.978;8.472;2023-09-12T05:20:12;100131.19;;;17.27;100.00
4858;BME280;58975;51.978;8.472;2023-09-12T05:25:09;100138.56;;;17.25;100.00
4858;BME280;58975;51.978;8.472;2023-09-12T05:30:06;100130.88;;;17.14;100.00
4858;BME280;58975;51.978;8.472;2023-09-12T05:35:03;100114.41;;;17.09;100.00
4858;BME280;58975;51.978;8.472;2023-09-12T05:40:17;100128.19;;;17.06;100.00
4858;BME280;58975;51.978;8.472;2023-09-12T05:45:14;100151.41;;;17.07;100.00
4858;BME280;58975;51.978;8.472;2023-09-12T05:50:10;100152.03;;;17.17;100.00
4858;BME280;58975;51.978;8.472;2023-09-12T05:55:08;100149.34;;;17.25;100.00
4858;BME280;58975;51.978;8.472;2023-09-12T06:00:05;100090.13;;;17.25;100.00
4858;BME280;58975;51.978;8.472;2023-09-12T06:05:05;100144.31;;;17.22;100.00
4858;BME280;58975;51.978;8.472;2023-09-12T06:10:02;100138.94;;;17.06;100.00
4858;BME280;58975;51.978;8.472;2023-09-12T06:14:59;100138.44;;;17.11;100.00
4858;BME280;58975;51.978;8.472;2023-09-12T06:19:56;100152.38;;;17.14;100.00
4858;BME280;58975;51.978;8.472;2023-09-12T06:24:53;100150.72;;;17.13;100.00
4858;BME280;58975;51.978;8.472;2023-09-12T06:29:49;100151.03;;;17.26;100.00
4858;BME280;58975;51.978;8.472;2023-09-12T06:34:46;100139.28;;;17.19;100.00
4858;BME280;58975;51.978;8.472;2023-09-12T06:39:44;100153.22;;;17.23;100.00
4858;BME280;58975;51.978;8.472;2023-09-12T06:44:40;100165.47;;;17.25;100.00
4858;BME280;58975;51.978;8.472;2023-09-12T06:49:37;100220.69;;;17.13;100.00
4858;BME280;58975;51.978;8.472;2023-09-12T06:54:34;100246.06;;;17.02;100.00
4858;BME280;58975;51.978;8.472;2023-09-12T06:59:31;100279.69;;;16.82;100.00
4858;BME280;58975;51.978;8.472;2023-09-12T07:04:27;100265.06;;;16.85;100.00
4858;BME280;58975;51.978;8.472;2023-09-12T07:09:24;100259.69;;;16.77;100.00
4858;BME280;58975;51.978;8.472;2023-09-12T07:14:20;100314.09;;;16.63;100.00
4858;BME280;58975;51.978;8.472;2023-09-12T07:19:18;100366.34;;;16.60;100.00
4858;BME280;58975;51.978;8.472;2023-09-12T07:24:14;100386.63;;;16.54;100.00
4858;BME280;58975;51.978;8.472;2023-09-12T07:29:11;100376.69;;;16.47;100.00
4858;BME280;58975;51.978;8.472;2023-09-12T07:34:09;100325.94;;;16.44;100.00
4858;BME280;58975;51.978;8.472;2023-09-12T07:39:06;100350.31;;;16.50;100.00
4858;BME280;58975;51.978;8.472;2023-09-12T07:44:03;100348.16;;;16.54;100.00
4858;BME280;58975;51.978;8.472;2023-09-12T07:49:01;100362.59;;;16.53;100.00
4858;BME280;58975;51.978;8.472;2023-09-12T07:53:57;100396.97;;;16.67;100.00
4858;BME280;58975;51.978;8.472;2023-09-12T07:58:54;100396.34;;;16.81;100.00
4858;BME280;58975;51.978;8.472;2023-09-12T08:03:51;100433.50;;;16.86;100.00
4858;BME280;58975;51.978;8.472;2023-09-12T08:08:48;100524.13;;;16.85;100.00
4858;BME280;58975;51.978;8.472;2023-09-12T08:13:49;100541.22;;;16.76;100.00
4858;BME280;58975;51.978;8.472;2023-09-12T08:18:46;100571.47;;;16.78;100.00
4858;BME280;58975;51.978;8.472;2023-09-12T08:23:42;100523.56;;;16.74;100.00
4858;BME280;58975;51.978;8.472;2023-09-12T08:28:39;100600.72;;;16.73;100.00
4858;BME280;58975;51.978;8.472;2023-09-12T08:33:37;100611.34;;;16.83;100.00
4858;BME280;58975;51.978;8.472;2023-09-12T08:38:34;100537.41;;;16.87;100.00
4858;BME280;58975;51.978;8.472;2023-09-12T08:43:30;100602.38;;;17.00;100.00
4858;BME280;58975;51.978;8.472;2023-09-12T08:48:27;100622.91;;;17.01;100.00
4858;BME280;58975;51.978;8.472;2023-09-12T08:53:25;100626.97;;;17.05;100.00
4858;BME280;58975;51.978;8.472;2023-09-12T08:58:22;100618.53;;;17.00;100.00
4858;BME280;58975;51.978;8.472;2023-09-12T09:03:20;100589.25;;;16.97;100.00
4858;BME280;58975;51.978;8.472;2023-09-12T09:08:20;100556.47;;;17.01;100.00
4858;BME280;58975;51.978;8.472;2023-09-12T09:13:17;100617.56;;;17.09;100.00
4858;BME280;58975;51.978;8.472;2023-09-12T09:18:15;100621.03;;;17.01;100.00
4858;BME280;58975;51.978;8.472;2023-09-12T09:23:12;100629.59;;;16.97;100.00
4858;BME280;58975;51.978;8.472;2023-09-12T09:28:19;100626.78;;;17.07;100.00
4858;BME280;58975;51.978;8.472;2023-09-12T09:33:16;100673.81;;;17.20;100.00
4858;BME280;58975;51.978;8.472;2023-09-12T09:38:13;100582.59;;;17.09;100.00
4858;BME280;58975;51.978;8.472;2023-09-12T09:43:22;100572.47;;;17.03;100.00
4858;BME280;58975;51.978;8.472;2023-09-12T09:48:23;100580.25;;;17.14;100.00
4858;BME280;58975;51.978;8.472;2023-09-12T09:53:27;100643.22;;;17.29;100.00
4858;BME280;58975;51.978;8.472;2023-09-12T09:58:24;100622.38;;;17.31;100.00
4858;BME280;58975;51.978;8.472;2023-09-12T10:03:22;100648.88;;;17.18;100.00
4858;BME280;58975;51.978;8.472;2023-09-12T10:08:20;100602.47;;;17.16;100.00
4858;BME280;58975;51.978;8.472;2023-09-12T10:13:20;100587.28;;;17.07;100.00
4858;BME280;58975;51.978;8.472;2023-09-12T10:18:46;100596.25;;;17.16;100.00
4858;BME280;58975;51.978;8.472;2023-09-12T10:23:46;100613.13;;;17.34;100.00
4858;BME280;58975;51.978;8.472;2023-09-12T10:28:47;100630.13;;;17.34;100.00
4858;BME280;58975;51.978;8.472;2023-09-12T10:33:44;100626.44;;;17.35;100.00
4858;BME280;58975;51.978;8.472;2023-09-12T10:38:44;100615.41;;;17.55;100.00
4858;BME280;58975;51.978;8.472;2023-09-12T10:43:42;100606.41;;;17.64;100.00
4858;BME280;58975;51.978;8.472;2023-09-12T10:48:40;100595.31;;;17.75;100.00
4858;BME280;58975;51.978;8.472;2023-09-12T10:53:37;100605.78;;;17.94;100.00
4858;BME280;58975;51.978;8.472;2023-09-12T11:09:27;100593.59;;;19.11;100.00
4858;BME280;58975;51.978;8.472;2023-09-12T11:14:24;100586.41;;;19.34;100.00
4858;BME280;58975;51.978;8.472;2023-09-12T11:19:22;100566.56;;;19.89;100.00
4858;BME280;58975;51.978;8.472;2023-09-12T11:24:20;100493.16;;;20.00;100.00
4858;BME280;58975;51.978;8.472;2023-09-12T11:29:17;100381.69;;;20.27;100.00
4858;BME280;58975;51.978;8.472;2023-09-12T11:34:14;100281.84;;;20.41;100.00
4858;BME280;58975;51.978;8.472;2023-09-12T11:39:25;100216.38;;;20.16;100.00
4858;BME280;58975;51.978;8.472;2023-09-12T11:44:22;100169.53;;;20.66;100.00
4858;BME280;58975;51.978;8.472;2023-09-12T11:49:20;100145.88;;;21.23;100.00
4858;BME280;58975;51.978;8.472;2023-09-12T11:54:24;100130.97;;;21.41;100.00
4858;BME280;58975;51.978;8.472;2023-09-12T11:59:21;100124.63;;;21.68;100.00
4858;BME280;58975;51.978;8.472;2023-09-12T12:04:20;100123.69;;;21.13;100.00
4858;BME280;58975;51.978;8.472;2023-09-12T12:09:18;100125.78;;;20.90;100.00
4858;BME280;58975;51.978;8.472;2023-09-12T12:14:17;100118.28;;;21.13;100.00
4858;BME280;58975;51.978;8.472;2023-09-12T12:19:15;100119.25;;;21.75;100.00
4858;BME280;58975;51.978;8.472;2023-09-12T12:24:14;100117.06;;;21.57;100.00
4858;BME280;58975;51.978;8.472;2023-09-12T12:29:11;100111.63;;;21.50;100.00
4858;BME280;58975;51.978;8.472;2023-09-12T12:34:08;100107.94;;;22.05;100.00
4858;BME280;58975;51.978;8.472;2023-09-12T12:39:24;100094.13;;;22.00;100.00
4858;BME280;58975;51.978;8.472;2023-09-12T12:44:21;100101.50;;;21.65;100.00
4858;BME280;58975;51.978;8.472;2023-09-12T12:49:19;100106.69;;;21.19;100.00
4858;BME280;58975;51.978;8.472;2023-09-12T12:54:21;100100.06;;;21.29;100.00
4858;BME280;58975;51.978;8.472;2023-09-12T12:59:18;100106.88;;;21.59;100.00
4858;BME280;58975;51.978;8.472;2023-09-12T13:04:15;100092.41;;;21.86;100.00
4858;BME280;58975;51.978;8.472;2023-09-12T13:09:13;100088.44;;;21.41;100.00
4858;BME280;58975;51.978;8.472;2023-09-12T13:14:10;100079.97;;;21.51;100.00
4858;BME280;58975;51.978;8.472;2023-09-12T13:19:09;100078.03;;;21.45;100.00
4858;BME280;58975;51.978;8.472;2023-09-12T13:24:07;100072.03;;;21.49;100.00
4858;BME280;58975;51.978;8.472;2023-09-12T13:29:04;100083.19;;;21.74;100.00
4858;BME280;58975;51.978;8.472;2023-09-12T13:34:02;100066.66;;;22.43;100.00
4858;BME280;58975;51.978;8.472;2023-09-12T13:38:59;100068.75;;;22.21;100.00
4858;BME280;58975;51.978;8.472;2023-09-12T13:43:56;100064.44;;;21.79;100.00
4858;BME280;58975;51.978;8.472;2023-09-12T13:48:52;100064.09;;;21.95;100.00
4858;BME280;58975;51.978;8.472;2023-09-12T13:53:49;100056.41;;;21.99;100.00
4858;BME280;58975;51.978;8.472;2023-09-12T13:58:45;100056.00;;;22.15;100.00
4858;BME280;58975;51.978;8.472;2023-09-12T14:03:43;100047.06;;;22.80;100.00
4858;BME280;58975;51.978;8.472;2023-09-12T14:08:41;100061.66;;;22.92;100.00
4858;BME280;58975;51.978;8.472;2023-09-12T14:13:38;100056.47;;;22.84;100.00
4858;BME280;58975;51.978;8.472;2023-09-12T14:18:34;100042.03;;;22.71;100.00
4858;BME280;58975;51.978;8.472;2023-09-12T14:23:32;100052.69;;;22.85;100.00
4858;BME280;58975;51.978;8.472;2023-09-12T14:28:29;100040.78;;;22.80;100.00
4858;BME280;58975;51.978;8.472;2023-09-12T14:33:29;100030.97;;;22.79;100.00
4858;BME280;58975;51.978;8.472;2023-09-12T14:38:25;100017.75;;;23.02;100.00
4858;BME280;58975;51.978;8.472;2023-09-12T14:43:22;100032.28;;;23.34;100.00
4858;BME280;58975;51.978;8.472;2023-09-12T14:48:19;100022.44;;;22.62;100.00
4858;BME280;58975;51.978;8.472;2023-09-12T14:53:16;100029.09;;;22.79;100.00
4858;BME280;58975;51.978;8.472;2023-09-12T14:58:13;100020.50;;;22.95;100.00
4858;BME280;58975;51.978;8.472;2023-09-12T15:03:09;100019.81;;;23.20;100.00
4858;BME280;58975;51.978;8.472;2023-09-12T15:08:06;100017.81;;;22.89;100.00
4858;BME280;58975;51.978;8.472;2023-09-12T15:13:03;100011.53;;;22.82;100.00
4858;BME280;58975;51.978;8.472;2023-09-12T15:18:00;100017.31;;;23.25;100.00
4858;BME280;58975;51.978;8.472;2023-09-12T15:22:57;100011.69;;;23.64;100.00
4858;BME280;58975;51.978;8.472;2023-09-12T15:27:54;99998.56;;;24.24;100.00
4858;BME280;58975;51.978;8.472;2023-09-12T15:32:50;100000.34;;;24.36;100.00
4858;BME280;58975;51.978;8.472;2023-09-12T15:37:47;99997.19;;;24.39;100.00
4858;BME280;58975;51.978;8.472;2023-09-12T15:42:44;99989.13;;;24.51;100.00
4858;BME280;58975;51.978;8.472;2023-09-12T15:47:40;99979.44;;;24.55;100.00
4858;BME280;58975;51.978;8.472;2023-09-12T15:52:37;99972.28;;;23.80;100.00
4858;BME280;58975;51.978;8.472;2023-09-12T15:57:35;99974.50;;;23.58;100.00
4858;BME280;58975;51.978;8.472;2023-09-12T16:02:33;99957.41;;;23.51;100.00
4858;BME280;58975;51.978;8.472;2023-09-12T16:07:30;99958.66;;;23.48;100.00
4858;BME280;58975;51.978;8.472;2023-09-12T16:12:27;99951.53;;;23.85;100.00
4858;BME280;58975;51.978;8.472;2023-09-12T16:17:24;99955.44;;;23.96;100.00
4858;BME280;58975;51.978;8.472;2023-09-12T16:22:21;99955.13;;;23.48;100.00
4858;BME280;58975;51.978;8.472;2023-09-12T16:27:17;99961.34;;;23.10;100.00
4858;BME280;58975;51.978;8.472;2023-09-12T16:32:14;99970.91;;;23.20;100.00
4858;BME280;58975;51.978;8.472;2023-09-12T16:37:11;99979.13;;;23.58;100.00
4858;BME280;58975;51.978;8.472;2023-09-12T16:42:08;99982.25;;;23.92;100.00
4858;BME280;58975;51.978;8.472;2023-09-12T16:47:05;99978.19;;;24.58;100.00
4858;BME280;58975;51.978;8.472;2023-09-12T16:52:03;99975.75;;;24.92;100.00
4858;BME280;58975;51.978;8.472;2023-09-12T16:57:00;99986.25;;;25.73;100.00
4858;BME280;58975;51.978;8.472;2023-09-12T17:01:56;99981.75;;;24.58;100.00
4858;BME280;58975;51.978;8.472;2023-09-12T17:06:52;99985.03;;;24.17;100.00
4858;BME280;58975;51.978;8.472;2023-09-12T17:11:49;99996.97;;;23.78;100.00
4858;BME280;58975;51.978;8.472;2023-09-12T17:16:47;99994.03;;;22.58;100.00
4858;BME280;58975;51.978;8.472;2023-09-12T17:21:43;100002.13;;;21.92;100.00
4858;BME280;58975;51.978;8.472;2023-09-12T17:26:41;100001.50;;;21.30;100.00
4858;BME280;58975;51.978;8.472;2023-09-12T17:31:38;100010.09;;;21.05;100.00
4858;BME280;58975;51.978;8.472;2023-09-12T17:36:35;100004.81;;;20.84;100.00
4858;BME280;58975;51.978;8.472;2023-09-12T17:41:31;99996.72;;;20.56;100.00
4858;BME280;58975;51.978;8.472;2023-09-12T17:46:28;100012.53;;;20.32;100.00
4858;BME280;58975;51.978;8.472;2023-09-12T17:51:24;100007.75;;;20.12;100.00
4858;BME280;58975;51.978;8.472;2023-09-12T17:56:21;100009.13;;;20.02;100.00
4858;BME280;58975;51.978;8.472;2023-09-12T18:01:19;100012.34;;;19.91;100.00
4858;BME280;58975;51.978;8.472;2023-09-12T18:06:18;100018.50;;;19.84;100.00
4858;BME280;58975;51.978;8.472;2023-09-12T18:11:15;100014.72;;;19.79;100.00
4858;BME280;58975;51.978;8.472;2023-09-12T18:16:11;100026.28;;;19.73;100.00
4858;BME280;58975;51.978;8.472;2023-09-12T18:21:10;100014.19;;;19.69;100.00
4858;BME280;58975;51.978;8.472;2023-09-12T18:26:07;100023.50;;;19.66;100.00
4858;BME280;58975;51.978;8.472;2023-09-12T18:31:03;100035.78;;;19.69;100.00
4858;BME280;58975;51.978;8.472;2023-09-12T18:36:00;100053.69;;;19.70;100.00
4858;BME280;58975;51.978;8.472;2023-09-12T18:40:57;100043.34;;;19.73;100.00
4858;BME280;58975;51.978;8.472;2023-09-12T18:45:54;100056.66;;;19.75;100.00
4858;BME280;58975;51.978;8.472;2023-09-12T18:50:51;100057.97;;;19.79;100.00
4858;BME280;58975;51.978;8.472;2023-09-12T18:55:47;100052.16;;;19.82;100.00
4858;BME280;58975;51.978;8.472;2023-09-12T19:00:44;100051.50;;;19.80;100.00
4858;BME280;58975;51.978;8.472;2023-09-12T19:05:42;100052.34;;;19.80;100.00
4858;BME280;58975;51.978;8.472;2023-09-12T19:10:39;100033.63;;;19.79;100.00
4858;BME280;58975;51.978;8.472;2023-09-12T19:15:36;100034.47;;;19.79;100.00
4858;BME280;58975;51.978;8.472;2023-09-12T19:20:35;100021.78;;;19.80;100.00
4858;BME280;58975;51.978;8.472;2023-09-12T19:25:32;100014.97;;;19.84;100.00
4858;BME280;58975;51.978;8.472;2023-09-12T19:30:30;100003.53;;;19.82;100.00
4858;BME280;58975;51.978;8.472;2023-09-12T19:35:30;99991.03;;;19.81;100.00
4858;BME280;58975;51.978;8.472;2023-09-12T19:40:26;99977.66;;;19.73;100.00
4858;BME280;58975;51.978;8.472;2023-09-12T19:45:24;99976.75;;;19.66;100.00
4858;BME280;58975;51.978;8.472;2023-09-12T19:50:21;99977.97;;;19.63;100.00
4858;BME280;58975;51.978;8.472;2023-09-12T19:55:17;99973.78;;;19.61;100.00
4858;BME280;58975;51.978;8.472;2023-09-12T20:00:14;99990.81;;;19.61;100.00
4858;BME280;58975;51.978;8.472;2023-09-12T20:05:11;99996.78;;;19.57;100.00
4858;BME280;58975;51.978;8.472;2023-09-12T20:10:08;100010.31;;;19.57;100.00
4858;BME280;58975;51.978;8.472;2023-09-12T20:15:05;100035.03;;;19.24;100.00
4858;BME280;58975;51.978;8.472;2023-09-12T20:20:02;100073.75;;;19.17;100.00
4858;BME280;58975;51.978;8.472;2023-09-12T20:24:58;100104.47;;;19.01;100.00
4858;BME280;58975;51.978;8.472;2023-09-12T20:29:55;100128.91;;;18.85;100.00
4858;BME280;58975;51.978;8.472;2023-09-12T20:34:52;100112.66;;;18.56;100.00
4858;BME280;58975;51.978;8.472;2023-09-12T20:39:49;100124.97;;;18.27;100.00
4858;BME280;58975;51.978;8.472;2023-09-12T20:44:45;100118.13;;;18.17;100.00
4858;BME280;58975;51.978;8.472;2023-09-12T20:49:43;100133.22;;;18.03;100.00
4858;BME280;58975;51.978;8.472;2023-09-12T20:54:41;100144.88;;;17.95;100.00
4858;BME280;58975;51.978;8.472;2023-09-12T20:59:37;100126.25;;;17.86;100.00
4858;BME280;58975;51.978;8.472;2023-09-12T21:04:34;100129.91;;;17.93;100.00
4858;BME280;58975;51.978;8.472;2023-09-12T21:09:31;100116.91;;;17.96;100.00
4858;BME280;58975;51.978;8.472;2023-09-12T21:14:27;100131.22;;;17.97;100.00
4858;BME280;58975;51.978;8.472;2023-09-12T21:19:24;100140.13;;;18.06;100.00
4858;BME280;58975;51.978;8.472;2023-09-12T21:24:20;100129.66;;;18.11;100.00
4858;BME280;58975;51.978;8.472;2023-09-12T21:29:17;100134.84;;;18.12;100.00
4858;BME280;58975;51.978;8.472;2023-09-12T21:34:14;100171.66;;;17.97;100.00
4858;BME280;58975;51.978;8.472;2023-09-12T21:39:10;100221.84;;;17.98;100.00
4858;BME280;58975;51.978;8.472;2023-09-12T21:44:07;100221.34;;;17.94;100.00
4858;BME280;58975;51.978;8.472;2023-09-12T21:49:05;100194.06;;;17.89;100.00
4858;BME280;58975;51.978;8.472;2023-09-12T21:54:01;100231.66;;;17.83;100.00
4858;BME280;58975;51.978;8.472;2023-09-12T21:58:58;100263.53;;;17.55;100.00
4858;BME280;58975;51.978;8.472;2023-09-12T22:03:54;100274.66;;;17.36;100.00
4858;BME280;58975;51.978;8.472;2023-09-12T22:08:51;100285.22;;;17.37;100.00
4858;BME280;58975;51.978;8.472;2023-09-12T22:13:47;100267.44;;;17.36;100.00
4858;BME280;58975;51.978;8.472;2023-09-12T22:18:44;100227.72;;;17.30;100.00
4858;BME280;58975;51.978;8.472;2023-09-12T22:23:40;100226.22;;;17.20;100.00
4858;BME280;58975;51.978;8.472;2023-09-12T22:28:37;100257.81;;;17.26;100.00
4858;BME280;58975;51.978;8.472;2023-09-12T22:33:34;100285.59;;;17.34;100.00
4858;BME280;58975;51.978;8.472;2023-09-12T22:38:30;100327.47;;;17.45;100.00
4858;BME280;58975;51.978;8.472;2023-09-12T22:43:30;100337.72;;;17.49;100.00
4858;BME280;58975;51.978;8.472;2023-09-12T22:48:27;100345.47;;;17.52;100.00
4858;BME280;58975;51.978;8.472;2023-09-12T22:53:24;100335.53;;;17.53;100.00
4858;BME280;58975;51.978;8.472;2023-09-12T22:58:20;100328.00;;;17.40;100.00
4858;BME280;58975;51.978;8.472;2023-09-12T23:03:17;100312.66;;;17.33;100.00
4858;BME280;58975;51.978;8.472;2023-09-12T23:08:14;100271.78;;;17.29;100.00
4858;BME280;58975;51.978;8.472;2023-09-12T23:13:10;100258.81;;;17.41;100.00
4858;BME280;58975;51.978;8.472;2023-09-12T23:18:07;100244.56;;;17.32;100.00
4858;BME280;58975;51.978;8.472;2023-09-12T23:23:03;100218.63;;;17.31;100.00
4858;BME280;58975;51.978;8.472;2023-09-12T23:28:00;100223.34;;;17.29;100.00
4858;BME280;58975;51.978;8.472;2023-09-12T23:33:00;100224.69;;;17.25;100.00
4858;BME280;58975;51.978;8.472;2023-09-12T23:37:56;100227.06;;;17.20;100.00
4858;BME280;58975;51.978;8.472;2023-09-12T23:42:53;100236.16;;;17.19;100.00
4858;BME280;58975;51.978;8.472;2023-09-12T23:47:49;100231.47;;;17.13;100.00
4858;BME280;58975;51.978;8.472;2023-09-12T23:52:46;100223.34;;;17.21;100.00
4858;BME280;58975;51.978;8.472;2023-09-12T23:57:42;100220.84;;;17.28;100.00
